createdAt,value
2017-12-05T00:00:12.640Z,29.80
2017-12-05T00:02:39.699Z,29.73
2017-12-05T00:05:07.025Z,28.67
2017-12-05T00:07:34.288Z,29.00
2017-12-05T00:10:01.577Z,29.30
2017-12-05T00:12:28.872Z,31.30
2017-12-05T00:14:56.140Z,29.20
2017-12-05T00:17:23.401Z,30.17
2017-12-05T00:19:50.758Z,32.60
2017-12-05T00:22:18.008Z,29.80
2017-12-05T00:24:45.297Z,29.40
2017-12-05T00:27:12.590Z,33.50
2017-12-05T00:29:39.854Z,30.77
2017-12-05T00:32:07.112Z,30.87
2017-12-05T00:34:34.398Z,29.97
2017-12-05T00:37:01.728Z,30.13
2017-12-05T00:39:29.084Z,28.30
2017-12-05T00:41:56.355Z,30.10
2017-12-05T00:44:23.696Z,30.50
2017-12-05T00:46:50.960Z,33.43
2017-12-05T00:49:18.221Z,28.90
2017-12-05T00:51:45.505Z,28.23
2017-12-05T00:54:12.808Z,28.23
2017-12-05T00:56:40.167Z,28.57
2017-12-05T00:59:07.425Z,26.57
2017-12-05T01:01:34.692Z,27.97
2017-12-05T01:04:02.030Z,29.23
2017-12-05T01:06:29.483Z,27.13
2017-12-05T01:08:56.749Z,28.50
2017-12-05T01:11:24.097Z,27.27
2017-12-05T01:13:51.377Z,30.60
2017-12-05T01:16:18.701Z,29.30
2017-12-05T01:18:45.966Z,29.60
2017-12-05T01:21:13.316Z,28.40
2017-12-05T01:23:40.572Z,27.40
2017-12-05T01:26:07.868Z,27.80
2017-12-05T01:28:35.173Z,27.03
2017-12-05T01:31:02.433Z,23.50
2017-12-05T01:33:29.722Z,26.60
2017-12-05T01:35:56.986Z,27.57
2017-12-05T01:38:24.264Z,26.07
2017-12-05T01:40:51.525Z,28.60
2017-12-05T01:43:18.825Z,31.93
2017-12-05T01:45:46.149Z,28.30
2017-12-05T01:48:13.353Z,28.80
2017-12-05T01:50:40.644Z,28.80
2017-12-05T01:53:07.910Z,31.20
2017-12-05T01:55:35.198Z,31.47
2017-12-05T01:58:02.459Z,27.67
2017-12-05T02:00:29.748Z,29.83
2017-12-05T02:02:57.000Z,29.07
2017-12-05T02:05:24.296Z,34.30
2017-12-05T02:07:51.550Z,28.10
2017-12-05T02:10:18.843Z,27.70
2017-12-05T02:12:46.201Z,28.57
2017-12-05T02:15:13.488Z,28.50
2017-12-05T02:17:40.753Z,28.73
2017-12-05T02:20:08.041Z,28.90
2017-12-05T02:22:35.292Z,26.53
2017-12-05T02:25:02.586Z,29.50
2017-12-05T02:27:29.878Z,30.57
2017-12-05T02:29:57.138Z,27.97
2017-12-05T02:32:24.425Z,31.40
2017-12-05T02:34:51.688Z,28.50
2017-12-05T02:37:18.976Z,29.33
2017-12-05T02:39:46.240Z,27.57
2017-12-05T02:42:13.543Z,28.13
2017-12-05T02:44:40.803Z,25.97
2017-12-05T02:47:08.473Z,25.17
2017-12-05T02:49:35.749Z,29.23
2017-12-05T02:52:03.005Z,33.33
2017-12-05T02:54:30.267Z,28.47
2017-12-05T02:56:57.556Z,26.70
2017-12-05T02:59:24.815Z,27.10
2017-12-05T03:01:52.093Z,27.30
2017-12-05T03:04:19.384Z,25.60
2017-12-05T03:06:46.644Z,30.20
2017-12-05T03:09:13.938Z,28.47
2017-12-05T03:11:41.197Z,28.30
2017-12-05T03:14:08.485Z,26.30
2017-12-05T03:16:35.742Z,26.90
2017-12-05T03:19:03.020Z,25.00
2017-12-05T03:21:30.284Z,23.20
2017-12-05T03:23:57.580Z,26.33
2017-12-05T03:26:24.841Z,23.93
2017-12-05T03:28:52.097Z,26.00
2017-12-05T03:31:19.381Z,29.90
2017-12-05T03:33:46.668Z,28.70
2017-12-05T03:36:13.964Z,27.93
2017-12-05T03:38:41.220Z,28.50
2017-12-05T03:41:08.522Z,28.90
2017-12-05T03:43:35.786Z,29.17
2017-12-05T03:46:03.049Z,30.70
2017-12-05T03:48:30.337Z,28.17
2017-12-05T03:50:57.630Z,27.37
2017-12-05T03:53:24.917Z,30.20
2017-12-05T03:55:52.196Z,26.47
2017-12-05T03:58:19.483Z,27.00
2017-12-05T04:00:46.742Z,27.03
2017-12-05T04:03:14.036Z,33.53
2017-12-05T04:05:41.296Z,29.07
2017-12-05T04:08:08.560Z,29.00
2017-12-05T04:10:35.947Z,31.90
2017-12-05T04:13:03.228Z,28.90
2017-12-05T04:15:30.493Z,25.87
2017-12-05T04:17:57.777Z,25.17
2017-12-05T04:20:25.076Z,30.10
2017-12-05T04:22:52.329Z,28.80
2017-12-05T04:25:19.595Z,25.97
2017-12-05T04:27:46.878Z,28.53
2017-12-05T04:30:14.161Z,28.20
2017-12-05T04:32:41.449Z,29.00
2017-12-05T04:35:08.714Z,26.07
2017-12-05T04:37:35.994Z,25.90
2017-12-05T04:40:03.260Z,26.87
2017-12-05T04:42:30.541Z,27.70
2017-12-05T04:44:57.829Z,27.60
2017-12-05T04:47:25.089Z,26.33
2017-12-05T04:49:52.354Z,26.60
2017-12-05T04:52:19.637Z,25.03
2017-12-05T04:54:46.900Z,24.07
2017-12-05T04:57:14.189Z,23.43
2017-12-05T04:59:41.483Z,22.80
2017-12-05T05:02:08.746Z,25.00
2017-12-05T05:04:36.033Z,23.93
2017-12-05T05:07:03.325Z,24.70
2017-12-05T05:09:30.588Z,21.73
2017-12-05T05:11:57.898Z,22.53
2017-12-05T05:14:25.241Z,25.57
2017-12-05T05:16:52.496Z,23.43
2017-12-05T05:19:19.810Z,24.03
2017-12-05T05:21:47.073Z,26.50
2017-12-05T05:24:14.365Z,23.70
2017-12-05T05:26:41.667Z,22.70
2017-12-05T05:29:08.930Z,27.27
2017-12-05T05:31:36.189Z,23.80
2017-12-05T05:34:03.576Z,22.40
2017-12-05T05:36:30.941Z,23.00
2017-12-05T05:38:58.201Z,22.90
2017-12-05T05:41:25.498Z,23.00
2017-12-05T05:43:52.748Z,25.70
2017-12-05T05:46:20.040Z,26.83
2017-12-05T05:48:47.301Z,24.33
2017-12-05T05:51:14.598Z,27.47
2017-12-05T05:53:41.859Z,20.70
2017-12-05T05:56:09.116Z,24.97
2017-12-05T05:58:36.410Z,24.90
2017-12-05T06:01:03.680Z,22.03
2017-12-05T06:03:30.941Z,22.80
2017-12-05T06:05:58.227Z,22.90
2017-12-05T06:08:25.493Z,21.33
2017-12-05T06:10:52.773Z,24.33
2017-12-05T06:13:20.060Z,19.60
2017-12-05T06:15:47.346Z,23.20
2017-12-05T06:18:14.610Z,20.60
2017-12-05T06:20:41.893Z,23.83
2017-12-05T06:23:09.152Z,24.30
2017-12-05T06:25:36.431Z,24.67
2017-12-05T06:28:03.698Z,24.10
2017-12-05T06:30:30.991Z,20.03
2017-12-05T06:32:58.251Z,21.97
2017-12-05T06:35:25.543Z,21.67
2017-12-05T06:37:52.804Z,21.13
2017-12-05T06:40:20.060Z,18.53
2017-12-05T06:42:47.350Z,22.60
2017-12-05T06:45:14.604Z,19.57
2017-12-05T06:47:41.911Z,18.57
2017-12-05T06:50:09.633Z,18.80
2017-12-05T06:52:36.870Z,19.17
2017-12-05T06:55:04.159Z,18.70
2017-12-05T06:57:31.441Z,17.67
2017-12-05T06:59:59.294Z,22.07
2017-12-05T07:02:26.579Z,21.48
2017-12-05T07:04:53.901Z,18.37
2017-12-05T07:07:21.253Z,17.60
2017-12-05T07:09:48.608Z,16.70
2017-12-05T07:12:15.964Z,19.23
2017-12-05T07:14:43.261Z,18.13
2017-12-05T07:17:10.524Z,18.47
2017-12-05T07:19:37.781Z,19.47
2017-12-05T07:22:05.065Z,17.90
2017-12-05T07:24:32.433Z,17.93
2017-12-05T07:26:59.725Z,18.97
2017-12-05T07:29:26.981Z,18.67
2017-12-05T07:31:54.247Z,16.83
2017-12-05T07:34:21.524Z,19.30
2017-12-05T07:36:48.812Z,16.27
2017-12-05T07:39:16.072Z,17.50
2017-12-05T07:41:43.360Z,18.70
2017-12-05T07:44:10.623Z,17.63
2017-12-05T07:46:37.902Z,17.60
2017-12-05T07:49:05.182Z,21.27
2017-12-05T07:51:32.538Z,19.67
2017-12-05T07:53:59.808Z,16.47
2017-12-05T07:56:27.072Z,16.83
2017-12-05T07:58:54.356Z,16.70
2017-12-05T08:01:21.628Z,18.50
2017-12-05T08:03:48.899Z,16.23
2017-12-05T08:06:16.176Z,17.37
2017-12-05T08:08:43.429Z,17.80
2017-12-05T08:11:10.709Z,17.57
2017-12-05T08:13:37.975Z,18.20
2017-12-05T08:16:05.259Z,16.30
2017-12-05T08:18:32.522Z,17.73
2017-12-05T08:20:59.799Z,15.83
2017-12-05T08:23:27.059Z,16.53
2017-12-05T08:25:54.336Z,16.53
2017-12-05T08:28:21.592Z,17.73
2017-12-05T08:30:48.857Z,17.37
2017-12-05T08:33:16.138Z,18.83
2017-12-05T08:35:43.387Z,19.10
2017-12-05T08:38:10.664Z,18.10
2017-12-05T08:40:37.929Z,16.23
2017-12-05T08:43:05.208Z,18.47
2017-12-05T08:45:32.468Z,16.90
2017-12-05T08:47:59.753Z,17.43
2017-12-05T08:50:27.009Z,20.30
2017-12-05T08:52:54.293Z,18.80
2017-12-05T08:55:21.559Z,17.23
2017-12-05T08:57:48.831Z,17.30
2017-12-05T09:00:16.092Z,17.73
2017-12-05T09:02:43.372Z,18.40
2017-12-05T09:05:10.632Z,18.20
2017-12-05T09:07:37.917Z,20.60
2017-12-05T09:10:05.181Z,18.70
2017-12-05T09:12:32.459Z,16.17
2017-12-05T09:14:59.762Z,17.80
2017-12-05T09:17:27.030Z,19.33
2017-12-05T09:19:54.318Z,18.40
2017-12-05T09:22:21.604Z,15.50
2017-12-05T09:24:48.885Z,14.50
2017-12-05T09:27:16.140Z,16.63
2017-12-05T09:29:43.420Z,17.77
2017-12-05T09:32:10.684Z,16.40
2017-12-05T09:34:37.965Z,15.20
2017-12-05T09:37:05.225Z,17.27
2017-12-05T09:39:32.504Z,16.93
2017-12-05T09:41:59.762Z,17.57
2017-12-05T09:44:27.036Z,18.30
2017-12-05T09:46:54.299Z,16.80
2017-12-05T09:49:21.580Z,17.40
2017-12-05T09:51:48.836Z,15.70
2017-12-05T09:54:16.149Z,16.70
2017-12-05T09:56:43.408Z,15.13
2017-12-05T09:59:10.659Z,17.53
2017-12-05T10:01:37.947Z,16.10
2017-12-05T10:04:05.204Z,14.97
2017-12-05T10:06:32.481Z,15.83
2017-12-05T10:08:59.845Z,16.73
2017-12-05T10:11:27.139Z,15.67
2017-12-05T10:13:54.505Z,18.83
2017-12-05T10:16:21.780Z,13.80
2017-12-05T10:18:49.041Z,13.83
2017-12-05T10:21:16.312Z,14.53
2017-12-05T10:23:43.569Z,13.20
2017-12-05T10:26:10.848Z,14.00
2017-12-05T10:28:38.109Z,14.33
2017-12-05T10:31:05.401Z,15.70
2017-12-05T10:33:32.663Z,14.27
2017-12-05T10:35:59.922Z,12.60
2017-12-05T10:38:27.215Z,14.30
2017-12-05T10:40:54.474Z,14.10
2017-12-05T10:43:21.752Z,14.50
2017-12-05T10:45:49.017Z,12.80
2017-12-05T10:48:16.289Z,13.20
2017-12-05T10:50:43.552Z,11.70
2017-12-05T10:53:10.833Z,12.13
2017-12-05T10:55:38.173Z,11.90
2017-12-05T10:58:05.445Z,12.83
2017-12-05T11:00:32.700Z,12.50
2017-12-05T11:03:00.029Z,12.60
2017-12-05T11:05:27.293Z,14.40
2017-12-05T11:07:54.573Z,12.37
2017-12-05T11:10:21.844Z,12.43
2017-12-05T11:12:49.125Z,12.90
2017-12-05T11:15:16.387Z,12.40
2017-12-05T11:17:43.668Z,12.90
2017-12-05T11:20:10.930Z,13.50
2017-12-05T11:22:38.197Z,12.40
2017-12-05T11:25:05.476Z,12.30
2017-12-05T11:27:32.737Z,12.40
2017-12-05T11:30:00.018Z,12.97
2017-12-05T11:32:27.277Z,12.27
2017-12-05T11:34:54.551Z,12.07
2017-12-05T11:37:21.887Z,12.23
2017-12-05T11:39:49.163Z,13.07
2017-12-05T11:42:16.417Z,14.30
2017-12-05T11:44:43.725Z,12.50
2017-12-05T11:47:10.983Z,12.63
2017-12-05T11:49:38.263Z,13.03
2017-12-05T11:52:05.527Z,12.60
2017-12-05T11:54:32.802Z,13.80
2017-12-05T11:57:00.060Z,12.50
2017-12-05T11:59:27.325Z,13.90
2017-12-05T12:01:54.820Z,12.27
2017-12-05T12:04:22.085Z,12.30
2017-12-05T12:06:49.368Z,12.13
2017-12-05T12:09:16.624Z,11.83
2017-12-05T12:11:43.900Z,10.77
2017-12-05T12:14:11.167Z,12.70
2017-12-05T12:16:38.448Z,12.17
2017-12-05T12:19:05.706Z,12.90
2017-12-05T12:21:32.985Z,11.73
2017-12-05T12:24:00.247Z,12.30
2017-12-05T12:26:27.524Z,12.00
2017-12-05T12:28:54.798Z,13.17
2017-12-05T12:31:22.081Z,13.10
2017-12-05T12:33:49.337Z,12.53
2017-12-05T12:36:16.652Z,11.57
2017-12-05T12:38:43.901Z,13.17
2017-12-05T12:41:11.165Z,12.20
2017-12-05T12:43:38.444Z,11.93
2017-12-05T12:46:05.701Z,13.50
2017-12-05T12:48:32.973Z,12.17
2017-12-05T12:51:00.237Z,13.13
2017-12-05T12:53:27.517Z,12.37
2017-12-05T12:55:54.772Z,13.43
2017-12-05T12:58:22.048Z,12.60
2017-12-05T13:00:49.312Z,11.47
2017-12-05T13:03:16.590Z,12.07
2017-12-05T13:05:43.853Z,11.47
2017-12-05T13:08:11.124Z,13.27
2017-12-05T13:10:38.391Z,12.43
2017-12-05T13:13:05.663Z,13.40
2017-12-05T13:15:32.925Z,12.20
2017-12-05T13:18:01.037Z,12.20
2017-12-05T13:20:28.291Z,12.97
2017-12-05T13:22:55.572Z,13.40
2017-12-05T13:25:22.833Z,13.37
2017-12-05T13:27:50.097Z,13.30
2017-12-05T13:30:17.377Z,14.30
2017-12-05T13:32:44.636Z,12.33
2017-12-05T13:35:11.913Z,12.80
2017-12-05T13:37:39.175Z,15.03
2017-12-05T13:40:06.451Z,13.03
2017-12-05T13:42:33.710Z,14.17
2017-12-05T13:45:00.987Z,11.10
2017-12-05T13:47:28.247Z,12.80
2017-12-05T13:49:55.522Z,10.50
2017-12-05T13:52:22.788Z,12.57
2017-12-05T13:54:50.069Z,12.23
2017-12-05T13:57:17.327Z,13.20
2017-12-05T13:59:44.625Z,14.40
2017-12-05T14:02:11.982Z,12.53
2017-12-05T14:04:39.397Z,13.37
2017-12-05T14:07:06.673Z,12.23
2017-12-05T14:09:34.042Z,13.93
2017-12-05T14:12:01.309Z,11.60
2017-12-05T14:14:28.569Z,15.50
2017-12-05T14:16:55.845Z,14.20
2017-12-05T14:19:23.179Z,14.23
2017-12-05T14:21:50.465Z,13.60
2017-12-05T14:24:17.720Z,15.10
2017-12-05T14:26:45.001Z,12.00
2017-12-05T14:29:12.267Z,12.80
2017-12-05T14:31:39.546Z,12.40
2017-12-05T14:34:06.801Z,13.07
2017-12-05T14:36:34.083Z,14.83
2017-12-05T14:39:01.336Z,14.30
2017-12-05T14:41:28.637Z,14.77
2017-12-05T14:43:56.023Z,13.13
2017-12-05T14:46:23.343Z,14.80
2017-12-05T14:48:50.623Z,13.93
2017-12-05T14:51:17.882Z,14.43
2017-12-05T14:53:45.161Z,14.43
2017-12-05T14:56:12.428Z,17.00
2017-12-05T14:58:39.725Z,15.60
2017-12-05T15:01:06.989Z,15.20
2017-12-05T15:03:34.269Z,14.80
2017-12-05T15:06:01.525Z,16.33
2017-12-05T15:08:28.804Z,15.90
2017-12-05T15:10:56.069Z,16.03
2017-12-05T15:13:23.349Z,14.70
2017-12-05T15:15:50.609Z,15.60
2017-12-05T15:18:17.889Z,14.67
2017-12-05T15:20:45.208Z,16.80
2017-12-05T15:23:12.510Z,15.67
2017-12-05T15:25:39.764Z,16.30
2017-12-05T15:28:07.030Z,16.73
2017-12-05T15:30:34.309Z,16.80
2017-12-05T15:33:01.574Z,18.40
2017-12-05T15:35:28.849Z,17.23
2017-12-05T15:37:56.105Z,18.03
2017-12-05T15:40:23.387Z,16.80
2017-12-05T15:42:50.644Z,17.13
2017-12-05T15:45:17.949Z,15.63
2017-12-05T15:47:45.214Z,16.90
2017-12-05T15:50:12.497Z,16.17
2017-12-05T15:52:39.745Z,15.80
2017-12-05T15:55:07.036Z,16.20
2017-12-05T15:57:34.293Z,16.00
2017-12-05T16:00:01.574Z,15.70
2017-12-05T16:02:28.944Z,18.10
2017-12-05T16:04:56.218Z,16.90
2017-12-05T16:07:23.481Z,16.73
2017-12-05T16:09:50.798Z,17.40
2017-12-05T16:12:18.145Z,17.90
2017-12-05T16:14:45.404Z,19.63
2017-12-05T16:17:12.685Z,18.00
2017-12-05T16:19:40.009Z,16.90
2017-12-05T16:22:07.371Z,17.80
2017-12-05T16:24:34.629Z,15.17
2017-12-05T16:27:01.904Z,17.60
2017-12-05T16:29:29.165Z,16.50
2017-12-05T16:31:56.444Z,17.53
2017-12-05T16:34:23.737Z,19.80
2017-12-05T16:36:51.009Z,19.13
2017-12-05T16:39:18.276Z,16.50
2017-12-05T16:41:45.556Z,17.40
2017-12-05T16:44:12.840Z,18.50
2017-12-05T16:46:40.205Z,20.40
2017-12-05T16:49:07.464Z,16.63
2017-12-05T16:51:34.723Z,16.67
2017-12-05T16:54:02.108Z,17.50
2017-12-05T16:56:29.345Z,17.80
2017-12-05T16:58:56.625Z,18.40
2017-12-05T17:01:23.888Z,17.30
2017-12-05T17:03:51.165Z,18.03
2017-12-05T17:06:18.423Z,17.67
2017-12-05T17:08:45.701Z,17.83
2017-12-05T17:11:13.052Z,18.80
2017-12-05T17:13:40.329Z,19.00
2017-12-05T17:16:07.656Z,19.07
2017-12-05T17:18:34.933Z,18.17
2017-12-05T17:21:02.202Z,17.67
2017-12-05T17:23:29.472Z,18.83
2017-12-05T17:25:56.736Z,18.07
2017-12-05T17:28:24.012Z,18.67
2017-12-05T17:30:51.277Z,18.87
2017-12-05T17:33:18.632Z,18.73
2017-12-05T17:35:45.957Z,19.90
2017-12-05T17:38:13.244Z,18.70
2017-12-05T17:40:40.574Z,18.98
2017-12-05T17:43:07.837Z,19.17
2017-12-05T17:45:35.123Z,17.40
2017-12-05T17:48:02.380Z,17.67
2017-12-05T17:50:29.656Z,18.80
2017-12-05T17:52:56.918Z,18.20
2017-12-05T17:55:24.199Z,17.13
2017-12-05T17:57:51.462Z,17.80
2017-12-05T18:00:18.834Z,17.67
2017-12-05T18:02:46.093Z,16.50
2017-12-05T18:05:13.373Z,20.00
2017-12-05T18:07:40.694Z,17.93
2017-12-05T18:10:08.048Z,18.50
2017-12-05T18:12:35.313Z,18.13
2017-12-05T18:15:02.592Z,18.90
2017-12-05T18:17:29.853Z,17.40
2017-12-05T18:19:57.161Z,16.80
2017-12-05T18:22:24.425Z,18.30
2017-12-05T18:24:51.682Z,17.50
2017-12-05T18:27:18.967Z,18.27
2017-12-05T18:29:46.229Z,17.00
2017-12-05T18:32:13.642Z,17.70
2017-12-05T18:34:40.909Z,18.60
2017-12-05T18:37:08.245Z,18.57
2017-12-05T18:39:35.503Z,15.90
2017-12-05T18:42:02.856Z,18.77
2017-12-05T18:44:30.217Z,17.10
2017-12-05T18:46:57.566Z,18.00
2017-12-05T18:49:24.834Z,16.60
2017-12-05T18:51:52.105Z,17.23
2017-12-05T18:54:19.366Z,17.53
2017-12-05T18:56:46.641Z,17.47
2017-12-05T18:59:13.936Z,16.50
2017-12-05T19:01:41.291Z,15.90
2017-12-05T19:04:08.542Z,16.20
2017-12-05T19:06:35.809Z,18.80
2017-12-05T19:09:03.085Z,18.30
2017-12-05T19:11:30.345Z,17.17
2017-12-05T19:13:57.653Z,15.67
2017-12-05T19:16:24.913Z,17.53
2017-12-05T19:18:52.189Z,18.50
2017-12-05T19:21:19.449Z,16.00
2017-12-05T19:23:46.730Z,19.30
2017-12-05T19:26:13.999Z,17.10
2017-12-05T19:28:41.268Z,16.77
2017-12-05T19:31:08.528Z,15.80
2017-12-05T19:33:35.811Z,17.63
2017-12-05T19:36:03.074Z,16.50
2017-12-05T19:38:30.393Z,16.20
2017-12-05T19:40:57.648Z,16.93
2017-12-05T19:43:24.912Z,16.27
2017-12-05T19:45:52.197Z,16.57
2017-12-05T19:48:19.458Z,14.50
2017-12-05T19:50:46.736Z,17.47
2017-12-05T19:53:13.997Z,16.90
2017-12-05T19:55:41.278Z,16.27
2017-12-05T19:58:08.542Z,15.30
2017-12-05T20:00:35.812Z,15.97
2017-12-05T20:03:03.073Z,19.00
2017-12-05T20:05:30.386Z,15.60
2017-12-05T20:07:57.649Z,15.03
2017-12-05T20:10:24.992Z,14.60
2017-12-05T20:12:52.252Z,15.03
2017-12-05T20:15:19.528Z,13.57
2017-12-05T20:17:46.788Z,15.13
2017-12-05T20:20:14.075Z,14.17
2017-12-05T20:22:41.336Z,14.13
2017-12-05T20:25:08.618Z,14.80
2017-12-05T20:27:35.881Z,13.47
2017-12-05T20:30:03.160Z,13.00
2017-12-05T20:32:30.417Z,15.20
2017-12-05T20:34:57.692Z,14.70
2017-12-05T20:37:24.957Z,14.20
2017-12-05T20:39:52.217Z,14.27
2017-12-05T20:42:19.505Z,14.30
2017-12-05T20:44:46.769Z,14.40
2017-12-05T20:47:14.047Z,14.97
2017-12-05T20:49:41.102Z,14.80
2017-12-05T20:52:08.174Z,14.60
2017-12-05T20:54:35.224Z,16.83
2017-12-05T20:57:02.297Z,13.97
2017-12-05T20:59:29.356Z,14.87
2017-12-05T21:01:56.428Z,16.13
2017-12-05T21:04:23.482Z,15.60
2017-12-05T21:06:50.553Z,15.70
2017-12-05T21:09:17.610Z,15.13
2017-12-05T21:11:44.680Z,15.33
2017-12-05T21:14:11.733Z,16.30
2017-12-05T21:16:38.815Z,14.13
2017-12-05T21:19:05.864Z,15.10
2017-12-05T21:21:32.945Z,15.60
2017-12-05T21:24:00.029Z,13.90
2017-12-05T21:26:27.065Z,14.43
2017-12-05T21:28:54.137Z,14.73
2017-12-05T21:31:21.192Z,14.50
2017-12-05T21:33:48.265Z,15.80
2017-12-05T21:36:15.325Z,17.30
2017-12-05T21:38:42.402Z,17.23
2017-12-05T21:41:09.456Z,16.40
2017-12-05T21:43:36.529Z,16.70
2017-12-05T21:46:03.589Z,17.10
2017-12-05T21:48:30.657Z,16.40
2017-12-05T21:50:57.713Z,16.60
2017-12-05T21:53:24.794Z,17.47
2017-12-05T21:55:51.845Z,15.97
2017-12-05T21:58:18.899Z,16.43
2017-12-05T22:00:46.785Z,16.67
2017-12-05T22:03:13.841Z,14.53
2017-12-05T22:05:40.914Z,15.80
2017-12-05T22:08:07.969Z,17.30
2017-12-05T22:10:35.246Z,16.27
2017-12-05T22:13:02.513Z,17.83
2017-12-05T22:15:29.787Z,15.53
2017-12-05T22:17:57.045Z,16.47
2017-12-05T22:20:24.330Z,15.03
2017-12-05T22:22:51.588Z,16.10
2017-12-05T22:25:18.872Z,14.50
2017-12-05T22:27:46.129Z,14.87
2017-12-05T22:30:13.410Z,16.30
2017-12-05T22:32:40.669Z,15.80
2017-12-05T22:35:07.960Z,16.57
2017-12-05T22:37:35.221Z,15.87
2017-12-05T22:40:02.484Z,14.43
2017-12-05T22:42:29.764Z,15.20
2017-12-05T22:44:57.027Z,13.83
2017-12-05T22:47:24.301Z,14.27
2017-12-05T22:49:51.554Z,14.10
2017-12-05T22:52:18.904Z,14.50
2017-12-05T22:54:46.167Z,15.73
2017-12-05T22:57:13.441Z,13.53
2017-12-05T22:59:40.709Z,14.30
2017-12-05T23:02:07.988Z,13.80
2017-12-05T23:04:35.249Z,16.00
2017-12-05T23:07:02.533Z,15.30
2017-12-05T23:09:29.877Z,13.00
2017-12-05T23:11:57.156Z,14.07
2017-12-05T23:14:24.421Z,12.97
2017-12-05T23:16:51.716Z,12.53
2017-12-05T23:19:18.992Z,14.60
2017-12-05T23:21:46.253Z,14.07
2017-12-05T23:26:47.453Z,13.23
2017-12-05T23:29:14.733Z,14.00
2017-12-05T23:31:41.993Z,12.70
2017-12-05T23:34:09.277Z,11.83
2017-12-05T23:36:36.536Z,13.03
2017-12-05T23:39:03.924Z,12.30
2017-12-05T23:41:31.189Z,14.33
2017-12-05T23:43:58.472Z,12.50
2017-12-05T23:46:25.730Z,14.07
2017-12-05T23:48:53.018Z,12.57
2017-12-05T23:51:20.285Z,12.60
2017-12-05T23:53:47.567Z,12.00
2017-12-05T23:56:14.829Z,12.07
2017-12-05T23:58:42.101Z,12.80
